Time;durP1;ratioP1;P1;durP2;ratioP2;P2;SDS_P1;SDS_P2;PMS_P1;PMS_P2;Temp;Humidity;BMP_temperature;BMP_pressure;BME280_temperature;BME280_humidity;BME280_pressure;Samples;Min_cycle;Max_cycle;Signal;HPM_P1;HPM_P2
2021/03/16 00:00:29;;;;;;;3.37;2.47;;;6.00;99.90;;;;;;4980848;28;20831;-55
2021/03/16 00:02:57;;;;;;;4.10;2.47;;;6.00;99.90;;;;;;4980815;28;20754;-52
2021/03/16 00:05:29;;;;;;;6.93;2.67;;;5.90;99.90;;;;;;4969948;28;20796;-51
2021/03/16 00:07:57;;;;;;;3.40;2.67;;;5.80;99.90;;;;;;4983640;28;20781;-49
2021/03/16 00:10:28;;;;;;;3.73;2.40;;;5.80;99.90;;;;;;4988020;28;20808;-49
2021/03/16 00:12:56;;;;;;;5.43;2.33;;;5.80;99.90;;;;;;4988312;28;20541;-50
2021/03/16 00:15:24;;;;;;;2.90;1.97;;;5.80;99.90;;;;;;4995419;28;20778;-55
2021/03/16 00:17:52;;;;;;;2.90;2.27;;;5.80;99.90;;;;;;4992087;28;20489;-48
2021/03/16 00:20:21;;;;;;;2.43;2.17;;;5.80;99.90;;;;;;4998292;28;20461;-53
2021/03/16 00:22:51;;;;;;;2.43;1.93;;;5.70;99.90;;;;;;4995510;28;20782;-52
2021/03/16 00:25:18;;;;;;;4.43;2.07;;;5.70;99.90;;;;;;4992667;28;20735;-53
2021/03/16 00:27:47;;;;;;;3.10;2.60;;;5.60;99.90;;;;;;4983280;28;20451;-55
2021/03/16 00:30:15;;;;;;;3.90;2.80;;;5.60;99.90;;;;;;4992080;28;20469;-50
2021/03/16 00:32:44;;;;;;;5.73;3.13;;;5.60;99.90;;;;;;4998405;28;20453;-51
2021/03/16 00:35:14;;;;;;;4.00;2.97;;;5.70;99.90;;;;;;4994202;28;20779;-54
2021/03/16 00:37:43;;;;;;;2.70;2.30;;;5.60;99.90;;;;;;4990906;28;20458;-49
2021/03/16 00:40:12;;;;;;;3.20;2.50;;;5.70;99.90;;;;;;4995027;28;20446;-51
2021/03/16 00:42:43;;;;;;;3.73;3.00;;;5.60;99.90;;;;;;4988750;28;20499;-50
2021/03/16 00:45:24;;;;;;;3.70;2.90;;;5.60;99.90;;;;;;4995432;28;20876;-53
2021/03/16 00:47:54;;;;;;;3.37;2.43;;;5.60;99.90;;;;;;4991505;28;21072;-49
2021/03/16 00:50:24;;;;;;;4.93;2.90;;;5.60;99.90;;;;;;4987894;28;20471;-49
2021/03/16 00:52:51;;;;;;;2.57;1.70;;;5.60;99.90;;;;;;4983117;28;20777;-49
2021/03/16 00:55:20;;;;;;;5.13;3.40;;;5.60;99.90;;;;;;4988205;28;20549;-51
2021/03/16 00:57:48;;;;;;;4.33;2.50;;;5.70;99.90;;;;;;4985090;28;20821;-54
2021/03/16 01:00:17;;;;;;;5.43;2.83;;;5.60;99.90;;;;;;4990241;28;20744;-55
2021/03/16 01:02:46;;;;;;;4.03;2.90;;;5.60;99.90;;;;;;4990961;28;20778;-53
2021/03/16 01:05:15;;;;;;;5.17;2.70;;;5.60;99.90;;;;;;4989829;28;20537;-54
2021/03/16 01:07:45;;;;;;;3.60;2.63;;;5.60;99.90;;;;;;4988938;28;20935;-52
2021/03/16 01:10:16;;;;;;;4.00;2.83;;;5.60;99.90;;;;;;4988065;28;20827;-52
2021/03/16 01:12:44;;;;;;;3.00;2.23;;;5.60;99.90;;;;;;4989482;28;20880;-52
2021/03/16 01:15:14;;;;;;;2.83;2.50;;;5.60;99.90;;;;;;4988076;28;20899;-55
2021/03/16 01:17:43;;;;;;;2.33;2.03;;;5.60;99.90;;;;;;4981769;28;20784;-53
2021/03/16 01:20:16;;;;;;;3.83;2.10;;;5.60;99.90;;;;;;4986960;28;20781;-51
2021/03/16 01:22:45;;;;;;;3.67;2.50;;;5.50;99.90;;;;;;4982176;28;20874;-52
2021/03/16 01:25:14;;;;;;;3.10;2.40;;;5.50;99.90;;;;;;4985444;28;20777;-54
2021/03/16 01:27:43;;;;;;;3.90;3.07;;;5.60;99.90;;;;;;4987222;28;20831;-53
2021/03/16 01:30:13;;;;;;;5.83;3.33;;;5.60;99.90;;;;;;4988055;28;20471;-52
2021/03/16 01:32:41;;;;;;;4.20;3.13;;;5.50;99.90;;;;;;4980954;28;20815;-55
2021/03/16 01:35:12;;;;;;;3.90;2.87;;;5.50;99.90;;;;;;4985730;28;20791;-53
2021/03/16 01:37:41;;;;;;;3.37;2.60;;;5.50;99.90;;;;;;4984790;28;20746;-55
2021/03/16 01:40:15;;;;;;;4.10;2.93;;;5.60;99.90;;;;;;4987342;28;20827;-53
2021/03/16 01:42:44;;;;;;;4.23;3.63;;;5.60;99.90;;;;;;4986069;28;20787;-50
2021/03/16 01:45:14;;;;;;;4.70;3.33;;;5.60;99.90;;;;;;4986589;28;20804;-50
2021/03/16 01:47:45;;;;;;;6.10;4.23;;;5.60;99.90;;;;;;4989445;28;20769;-49
2021/03/16 01:50:17;;;;;;;6.77;3.87;;;5.60;99.90;;;;;;4987262;28;20800;-51
2021/03/16 01:52:45;;;;;;;3.93;3.23;;;5.60;99.90;;;;;;4987127;28;20454;-49
2021/03/16 01:55:17;;;;;;;6.03;3.73;;;5.60;99.90;;;;;;4987947;28;20465;-52
2021/03/16 01:57:48;;;;;;;6.00;3.73;;;5.60;99.90;;;;;;4988927;28;20817;-52
2021/03/16 02:00:17;;;;;;;12.03;4.13;;;5.50;99.90;;;;;;4988579;28;20779;-52
2021/03/16 02:02:46;;;;;;;5.43;3.53;;;5.60;99.90;;;;;;4980495;28;20796;-56
2021/03/16 02:05:15;;;;;;;6.43;3.50;;;5.50;99.90;;;;;;4982387;28;20769;-55
2021/03/16 02:07:52;;;;;;;3.73;2.70;;;5.50;99.90;;;;;;4980575;28;20811;-54
2021/03/16 02:10:29;;;;;;;4.40;3.73;;;5.50;99.90;;;;;;4979894;28;20826;-54
2021/03/16 02:13:01;;;;;;;5.77;3.47;;;5.40;99.90;;;;;;4980131;28;20990;-49
2021/03/16 02:15:34;;;;;;;7.00;3.13;;;5.40;99.90;;;;;;4979119;28;20920;-55
2021/03/16 02:18:07;;;;;;;5.27;3.40;;;5.40;99.90;;;;;;4978874;28;20757;-51
2021/03/16 02:20:57;;;;;;;5.20;2.90;;;5.30;99.90;;;;;;4979011;28;20812;-55
2021/03/16 02:23:34;;;;;;;6.63;2.90;;;5.40;99.90;;;;;;4976976;28;20797;-53
2021/03/16 02:26:16;;;;;;;8.03;3.63;;;5.30;99.90;;;;;;4979230;28;20431;-54
2021/03/16 02:29:09;;;;;;;5.27;3.00;;;5.40;99.90;;;;;;4979034;28;20820;-54
2021/03/16 02:31:41;;;;;;;6.70;3.00;;;5.40;99.90;;;;;;4978555;28;20812;-54
2021/03/16 02:34:10;;;;;;;3.17;2.47;;;5.40;99.90;;;;;;4978658;28;20831;-54
2021/03/16 02:36:41;;;;;;;5.90;2.90;;;5.40;99.90;;;;;;4972288;28;20805;-52
2021/03/16 02:39:11;;;;;;;2.90;2.40;;;5.40;99.90;;;;;;4975428;28;20780;-50
2021/03/16 02:41:44;;;;;;;4.13;3.30;;;5.50;99.90;;;;;;4976931;28;20768;-50
2021/03/16 02:44:14;;;;;;;7.63;3.37;;;5.50;99.90;;;;;;4976956;28;20812;-51
2021/03/16 02:46:45;;;;;;;3.27;2.80;;;5.50;99.90;;;;;;4977149;28;20783;-54
2021/03/16 02:49:14;;;;;;;6.80;3.43;;;5.50;99.90;;;;;;4976344;28;20758;-51
2021/03/16 02:51:44;;;;;;;3.00;2.70;;;5.40;99.90;;;;;;4977106;28;20463;-52
2021/03/16 02:54:14;;;;;;;3.17;2.33;;;5.40;99.90;;;;;;4977075;28;20776;-53
2021/03/16 02:56:43;;;;;;;5.13;2.70;;;5.40;99.90;;;;;;4977059;28;20793;-50
2021/03/16 02:59:14;;;;;;;8.73;3.40;;;5.30;99.90;;;;;;4977809;28;20803;-52
2021/03/16 03:01:42;;;;;;;2.77;2.30;;;5.30;99.90;;;;;;4977553;28;20796;-53
2021/03/16 03:04:11;;;;;;;4.33;3.33;;;5.30;99.90;;;;;;4976992;28;21039;-51
2021/03/16 03:06:41;;;;;;;5.23;2.80;;;5.30;99.90;;;;;;4977190;28;20783;-52
2021/03/16 03:09:12;;;;;;;3.33;2.93;;;5.20;99.90;;;;;;4975431;28;20781;-53
2021/03/16 03:11:41;;;;;;;4.20;2.83;;;5.20;99.90;;;;;;4976452;28;20790;-50
2021/03/16 03:14:12;;;;;;;4.20;3.20;;;5.20;99.90;;;;;;4977355;28;20807;-50
2021/03/16 03:16:42;;;;;;;5.07;3.27;;;5.20;99.90;;;;;;4977367;28;20523;-49
2021/03/16 03:19:10;;;;;;;3.63;2.57;;;5.20;99.90;;;;;;4977030;28;20455;-48
2021/03/16 03:21:45;;;;;;;3.90;3.50;;;5.20;99.90;;;;;;4977024;28;20880;-49
2021/03/16 03:24:29;;;;;;;4.60;3.10;;;5.30;99.90;;;;;;4976910;28;20784;-50
2021/03/16 03:27:03;;;;;;;2.53;2.33;;;5.20;99.90;;;;;;4976706;28;20852;-53
2021/03/16 03:29:34;;;;;;;3.87;2.77;;;5.30;99.90;;;;;;4977300;28;20490;-53
2021/03/16 03:32:05;;;;;;;3.23;2.37;;;5.30;99.90;;;;;;4978477;28;20795;-55
2021/03/16 03:34:36;;;;;;;5.00;2.70;;;5.30;99.90;;;;;;4979236;28;20788;-50
2021/03/16 03:37:05;;;;;;;4.17;2.13;;;5.30;99.90;;;;;;4979220;28;20801;-54
2021/03/16 03:39:35;;;;;;;5.30;2.57;;;5.20;99.90;;;;;;4979443;28;20789;-50
2021/03/16 03:42:04;;;;;;;3.40;2.93;;;5.10;99.90;;;;;;4978769;28;20795;-50
2021/03/16 03:44:34;;;;;;;5.30;2.83;;;5.00;99.90;;;;;;4979401;28;20808;-53
2021/03/16 03:47:05;;;;;;;8.10;2.93;;;5.00;99.90;;;;;;4978814;28;21002;-51
2021/03/16 03:49:34;;;;;;;3.57;2.30;;;5.00;99.90;;;;;;4982625;28;20804;-54
2021/03/16 03:52:02;;;;;;;5.87;3.30;;;5.00;99.90;;;;;;4982869;28;20814;-52
2021/03/16 03:54:31;;;;;;;3.70;2.90;;;5.00;99.90;;;;;;4983538;28;20833;-51
2021/03/16 03:57:00;;;;;;;4.33;2.73;;;5.00;99.90;;;;;;4983054;28;20835;-51
2021/03/16 03:59:29;;;;;;;5.53;2.53;;;4.90;99.90;;;;;;4980411;28;20829;-54
2021/03/16 04:01:59;;;;;;;7.77;3.90;;;4.90;99.90;;;;;;4980222;28;20546;-52
2021/03/16 04:04:30;;;;;;;2.60;2.20;;;4.90;99.90;;;;;;4980823;28;20793;-53
2021/03/16 04:07:00;;;;;;;4.87;2.80;;;4.90;99.90;;;;;;4980509;28;20828;-55
2021/03/16 04:09:28;;;;;;;3.37;2.90;;;5.00;99.90;;;;;;4980409;28;20494;-50
2021/03/16 04:11:57;;;;;;;3.50;3.20;;;5.10;99.90;;;;;;4980483;28;20450;-52
2021/03/16 04:14:26;;;;;;;11.30;3.13;;;5.10;99.90;;;;;;4980624;28;20457;-54
2021/03/16 04:16:56;;;;;;;4.80;3.43;;;5.20;99.90;;;;;;4980797;28;20454;-51
2021/03/16 04:19:25;;;;;;;2.83;2.20;;;5.20;99.90;;;;;;4980393;28;20796;-54
2021/03/16 04:21:56;;;;;;;4.97;3.03;;;5.30;99.90;;;;;;4981014;28;20469;-52
2021/03/16 04:24:25;;;;;;;2.30;2.10;;;5.30;99.90;;;;;;4980406;28;20791;-48
2021/03/16 04:26:53;;;;;;;6.50;3.10;;;5.20;99.90;;;;;;4980285;28;20495;-54
2021/03/16 04:29:22;;;;;;;5.00;2.67;;;5.20;99.90;;;;;;4979363;28;20938;-44
2021/03/16 04:31:50;;;;;;;4.90;2.47;;;5.30;99.90;;;;;;4979094;28;20847;-44
2021/03/16 04:34:18;;;;;;;4.10;2.70;;;5.30;99.90;;;;;;4980919;28;20796;-44
2021/03/16 04:36:47;;;;;;;4.30;3.10;;;5.20;99.90;;;;;;4980479;28;20847;-48
2021/03/16 04:39:17;;;;;;;4.00;3.00;;;5.20;99.90;;;;;;4979878;28;20864;-44
2021/03/16 04:41:45;;;;;;;2.60;1.83;;;5.20;99.90;;;;;;4980085;28;20763;-50
2021/03/16 04:44:13;;;;;;;3.60;2.60;;;5.20;99.90;;;;;;4980356;28;20943;-47
2021/03/16 04:46:41;;;;;;;8.60;3.17;;;5.10;99.90;;;;;;4980794;28;20856;-52
2021/03/16 04:49:09;;;;;;;3.93;2.60;;;5.10;99.90;;;;;;4980103;28;20798;-47
2021/03/16 04:51:38;;;;;;;5.30;2.30;;;5.00;99.90;;;;;;4979820;28;20646;-48
2021/03/16 04:54:07;;;;;;;5.43;2.33;;;5.10;99.90;;;;;;4979468;28;20807;-46
2021/03/16 04:56:37;;;;;;;2.47;2.00;;;5.10;99.90;;;;;;4979893;28;20905;-47
2021/03/16 04:59:08;;;;;;;4.17;3.07;;;5.00;99.90;;;;;;4980133;28;20792;-49
2021/03/16 05:01:37;;;;;;;3.43;1.83;;;5.00;99.90;;;;;;4977452;28;20487;-49
2021/03/16 05:04:05;;;;;;;3.80;2.07;;;5.00;99.90;;;;;;4979615;28;20494;-47
2021/03/16 05:06:33;;;;;;;4.90;2.80;;;5.00;99.90;;;;;;4979315;28;20971;-47
2021/03/16 05:09:02;;;;;;;7.47;2.73;;;5.00;99.90;;;;;;4981232;28;20788;-52
2021/03/16 05:11:30;;;;;;;3.00;2.33;;;5.00;99.90;;;;;;4984103;28;20805;-45
2021/03/16 05:13:59;;;;;;;3.90;2.73;;;5.00;99.90;;;;;;4984203;28;20971;-46
2021/03/16 05:16:27;;;;;;;7.03;2.90;;;5.00;99.90;;;;;;4984061;28;20455;-51
2021/03/16 05:18:56;;;;;;;2.97;2.40;;;5.10;99.90;;;;;;4983658;28;20463;-44
2021/03/16 05:21:24;;;;;;;6.10;2.50;;;5.00;99.90;;;;;;4983605;28;20981;-50
2021/03/16 05:23:52;;;;;;;5.17;2.70;;;5.10;99.90;;;;;;4983591;28;20455;-47
2021/03/16 05:26:20;;;;;;;3.53;2.53;;;5.10;99.90;;;;;;4983048;28;20494;-48
2021/03/16 05:28:49;;;;;;;3.57;2.93;;;5.10;99.90;;;;;;4983429;28;21123;-45
2021/03/16 05:31:18;;;;;;;14.43;3.20;;;5.10;99.90;;;;;;4984195;28;21015;-44
2021/03/16 05:33:47;;;;;;;3.50;2.70;;;5.10;99.90;;;;;;4984726;28;20795;-44
2021/03/16 05:36:16;;;;;;;4.03;2.40;;;5.10;99.90;;;;;;4983716;28;20852;-47
2021/03/16 05:38:44;;;;;;;4.20;2.57;;;5.10;99.90;;;;;;4984330;28;20791;-48
2021/03/16 05:41:13;;;;;;;3.10;2.40;;;5.10;99.90;;;;;;4985909;28;20936;-46
2021/03/16 05:43:42;;;;;;;4.20;3.37;;;5.00;99.90;;;;;;4983834;28;20501;-46
2021/03/16 05:46:12;;;;;;;4.73;2.47;;;5.00;99.90;;;;;;4981647;28;20827;-48
2021/03/16 05:48:42;;;;;;;5.20;2.03;;;5.10;99.90;;;;;;4976395;28;20526;-47
2021/03/16 05:51:12;;;;;;;5.97;2.30;;;5.00;99.90;;;;;;4977817;28;20785;-46
2021/03/16 05:53:40;;;;;;;3.50;1.60;;;5.00;99.90;;;;;;4978072;28;20478;-46
2021/03/16 05:56:10;;;;;;;5.60;1.80;;;5.00;99.90;;;;;;4979504;28;20795;-44
2021/03/16 05:58:39;;;;;;;3.90;2.17;;;5.10;99.90;;;;;;4979461;28;20772;-52
2021/03/16 06:01:09;;;;;;;4.37;2.20;;;5.10;99.90;;;;;;4979790;28;20520;-44
2021/03/16 06:03:37;;;;;;;8.43;2.70;;;5.10;99.90;;;;;;4979031;28;20839;-51
2021/03/16 06:06:09;;;;;;;6.27;2.50;;;5.20;99.90;;;;;;4978415;28;20818;-47
2021/03/16 06:08:37;;;;;;;3.17;2.50;;;5.20;99.90;;;;;;4978266;28;20781;-45
2021/03/16 06:11:07;;;;;;;6.57;3.13;;;5.20;99.90;;;;;;4978224;28;20816;-50
2021/03/16 06:13:36;;;;;;;10.13;3.33;;;5.30;99.90;;;;;;4978790;28;20781;-47
2021/03/16 06:16:14;;;;;;;3.73;2.60;;;5.30;99.90;;;;;;4978250;28;20451;-49
2021/03/16 06:18:43;;;;;;;4.03;2.60;;;5.30;99.90;;;;;;4978360;28;20796;-47
2021/03/16 06:21:17;;;;;;;2.30;1.90;;;5.30;99.90;;;;;;4977961;28;20800;-47
2021/03/16 06:23:53;;;;;;;4.53;2.70;;;5.30;99.90;;;;;;4981258;28;20771;-52
2021/03/16 06:26:24;;;;;;;3.83;2.30;;;5.20;99.90;;;;;;4981725;28;20490;-45
2021/03/16 06:28:52;;;;;;;3.23;2.07;;;5.10;99.90;;;;;;4980114;28;20776;-52
2021/03/16 06:31:25;;;;;;;3.70;2.50;;;5.10;99.90;;;;;;4990528;28;20497;-51
2021/03/16 06:33:52;;;;;;;7.77;3.40;;;5.20;99.90;;;;;;4992019;28;20459;-47
2021/03/16 06:36:26;;;;;;;6.10;2.63;;;5.10;99.90;;;;;;4983876;28;20477;-49
2021/03/16 06:38:55;;;;;;;4.30;2.90;;;5.10;99.90;;;;;;4991141;28;20450;-55
2021/03/16 06:41:25;;;;;;;5.57;2.40;;;5.20;99.90;;;;;;4991563;28;20808;-56
2021/03/16 06:43:55;;;;;;;7.90;2.67;;;5.20;99.90;;;;;;4991245;28;20454;-55
2021/03/16 06:46:34;;;;;;;2.90;2.53;;;5.20;99.90;;;;;;4990758;28;20439;-54
2021/03/16 06:49:03;;;;;;;5.10;3.37;;;5.20;99.90;;;;;;4986691;28;20477;-55
2021/03/16 06:51:32;;;;;;;3.70;2.53;;;5.20;99.90;;;;;;4971251;29;20486;-56
2021/03/16 06:54:09;;;;;;;4.53;2.87;;;5.20;99.90;;;;;;4970930;29;20448;-55
2021/03/16 06:56:38;;;;;;;3.80;2.60;;;5.20;99.90;;;;;;4972013;29;20470;-54
2021/03/16 06:59:07;;;;;;;5.80;2.80;;;5.20;99.90;;;;;;4971622;29;20908;-57
2021/03/16 07:01:40;;;;;;;4.40;3.03;;;5.20;99.90;;;;;;4970882;29;20784;-53
2021/03/16 07:04:15;;;;;;;12.00;3.60;;;5.20;99.90;;;;;;4971365;29;20907;-56
2021/03/16 07:06:45;;;;;;;6.20;2.50;;;5.20;99.90;;;;;;4970340;29;20456;-54
2021/03/16 07:09:13;;;;;;;4.47;3.60;;;5.30;99.90;;;;;;4977715;28;20439;-53
2021/03/16 07:11:45;;;;;;;5.40;2.93;;;5.30;99.90;;;;;;4977459;29;20476;-55
2021/03/16 07:14:13;;;;;;;2.83;2.00;;;5.30;99.90;;;;;;4991256;28;20438;-57
2021/03/16 07:16:41;;;;;;;2.40;2.07;;;5.40;99.90;;;;;;4997176;28;20455;-55
2021/03/16 07:19:10;;;;;;;8.13;3.00;;;5.40;99.90;;;;;;4998247;28;20443;-55
2021/03/16 07:21:39;;;;;;;4.33;2.63;;;5.30;99.90;;;;;;4997163;28;20448;-54
2021/03/16 07:24:11;;;;;;;4.20;2.50;;;5.40;99.90;;;;;;5000632;28;20447;-50
2021/03/16 07:26:39;;;;;;;4.20;2.37;;;5.30;99.90;;;;;;4996973;28;20974;-53
2021/03/16 07:29:08;;;;;;;4.27;2.33;;;5.30;99.90;;;;;;4995384;28;20517;-55
2021/03/16 07:31:38;;;;;;;4.20;2.33;;;5.30;99.90;;;;;;4994249;28;20498;-55
2021/03/16 07:34:07;;;;;;;11.60;4.17;;;5.40;99.90;;;;;;4994423;28;20443;-55
2021/03/16 07:36:37;;;;;;;7.20;2.63;;;5.40;99.90;;;;;;4994370;28;20441;-52
2021/03/16 07:39:07;;;;;;;3.40;2.83;;;5.50;99.90;;;;;;4992402;28;20459;-55
2021/03/16 07:41:37;;;;;;;3.20;2.53;;;5.70;99.90;;;;;;4992388;28;20518;-53
2021/03/16 07:44:08;;;;;;;11.57;2.33;;;5.70;99.90;;;;;;4991647;28;20455;-56
2021/03/16 07:46:45;;;;;;;5.67;2.43;;;5.80;99.90;;;;;;4997003;28;20443;-55
2021/03/16 07:49:30;;;;;;;6.17;2.50;;;5.90;99.90;;;;;;5005135;28;20817;-52
2021/03/16 07:51:58;;;;;;;5.83;2.77;;;5.80;99.90;;;;;;5012486;28;20482;-50
2021/03/16 07:54:33;;;;;;;2.87;2.33;;;5.80;99.90;;;;;;5013166;28;20846;-51
2021/03/16 07:57:03;;;;;;;5.97;3.10;;;5.60;99.90;;;;;;5012246;28;20922;-52
2021/03/16 07:59:32;;;;;;;4.43;2.80;;;5.60;99.90;;;;;;5011468;28;21021;-50
2021/03/16 08:02:01;;;;;;;5.90;2.83;;;5.70;99.90;;;;;;5018823;28;20458;-50
2021/03/16 08:04:36;;;;;;;5.30;2.70;;;5.70;99.90;;;;;;5011935;28;20450;-50
2021/03/16 08:07:05;;;;;;;5.70;3.03;;;5.70;99.90;;;;;;5012189;28;20457;-55
2021/03/16 08:09:44;;;;;;;4.93;2.43;;;5.60;99.90;;;;;;5013391;28;20446;-50
2021/03/16 08:12:21;;;;;;;4.80;2.90;;;5.50;99.90;;;;;;5012416;28;20888;-53
2021/03/16 08:14:49;;;;;;;3.40;2.47;;;5.50;99.90;;;;;;5005434;28;20438;-56
2021/03/16 08:17:28;;;;;;;4.33;2.93;;;5.50;99.90;;;;;;4993037;28;20848;-58
2021/03/16 08:19:57;;;;;;;10.37;3.73;;;5.50;99.90;;;;;;4992111;28;20451;-53
2021/03/16 08:22:27;;;;;;;5.00;2.57;;;5.50;99.90;;;;;;4990491;28;20435;-56
2021/03/16 08:25:02;;;;;;;11.83;3.00;;;5.50;99.90;;;;;;4998951;28;20478;-53
2021/03/16 08:27:31;;;;;;;3.00;2.53;;;5.50;99.90;;;;;;4999785;28;20486;-53
2021/03/16 08:29:59;;;;;;;11.30;3.50;;;5.50;99.90;;;;;;4999787;28;20475;-53
2021/03/16 08:32:30;;;;;;;4.87;2.50;;;5.60;99.90;;;;;;4999769;28;20439;-56
2021/03/16 08:34:58;;;;;;;4.47;3.10;;;5.60;99.90;;;;;;4979054;28;20460;-56
2021/03/16 08:37:28;;;;;;;11.57;2.57;;;5.70;99.90;;;;;;4979818;29;20455;-50
2021/03/16 08:39:56;;;;;;;2.70;2.10;;;5.60;99.90;;;;;;4980232;29;20830;-55
2021/03/16 08:42:25;;;;;;;2.90;2.20;;;5.70;99.90;;;;;;4979726;29;20453;-52
2021/03/16 08:44:55;;;;;;;7.63;2.23;;;5.60;99.90;;;;;;4982885;28;20492;-51
2021/03/16 08:47:24;;;;;;;2.83;2.27;;;5.60;99.90;;;;;;5018762;28;20454;-55
2021/03/16 08:49:54;;;;;;;4.20;2.77;;;5.70;99.90;;;;;;5018374;28;20445;-53
2021/03/16 08:52:25;;;;;;;4.33;2.40;;;5.90;99.90;;;;;;5017144;28;20444;-50
2021/03/16 08:54:55;;;;;;;4.10;2.33;;;5.90;99.90;;;;;;5013572;28;20423;-57
2021/03/16 08:57:26;;;;;;;7.60;2.93;;;5.80;99.90;;;;;;5003224;28;20509;-55
2021/03/16 08:59:57;;;;;;;7.17;3.53;;;5.80;99.90;;;;;;5003615;28;20486;-54
2021/03/16 09:02:27;;;;;;;3.57;2.80;;;5.70;99.90;;;;;;4998457;28;20518;-54
2021/03/16 09:04:56;;;;;;;5.50;3.03;;;5.80;99.90;;;;;;4999143;28;20502;-54
2021/03/16 09:07:25;;;;;;;4.73;2.93;;;5.70;99.90;;;;;;4999034;28;20807;-54
2021/03/16 09:10:02;;;;;;;6.20;3.40;;;5.80;99.90;;;;;;5003363;28;20478;-54
2021/03/16 09:12:32;;;;;;;5.97;2.30;;;5.80;99.90;;;;;;4995322;28;20532;-49
2021/03/16 09:15:09;;;;;;;2.70;2.20;;;6.00;99.90;;;;;;5008536;28;20561;-56
2021/03/16 09:17:39;;;;;;;5.43;2.70;;;6.20;99.90;;;;;;5004975;28;20477;-55
2021/03/16 09:20:15;;;;;;;3.90;3.07;;;6.60;99.90;;;;;;5018346;28;20502;-52
2021/03/16 09:22:45;;;;;;;5.53;2.90;;;6.70;99.90;;;;;;5000423;28;20459;-56
2021/03/16 09:25:14;;;;;;;5.60;2.23;;;6.90;99.90;;;;;;4998502;28;20437;-57
2021/03/16 09:27:44;;;;;;;5.10;2.50;;;6.70;99.90;;;;;;5011429;28;20459;-55
2021/03/16 09:30:14;;;;;;;3.97;2.80;;;6.80;99.90;;;;;;4997750;28;20479;-53
2021/03/16 09:32:45;;;;;;;4.90;2.57;;;6.90;99.90;;;;;;5004593;28;20434;-56
2021/03/16 09:35:18;;;;;;;3.43;2.50;;;7.30;99.90;;;;;;5015081;28;20439;-53
2021/03/16 09:37:48;;;;;;;2.73;2.10;;;7.70;99.90;;;;;;4999044;28;20474;-56
2021/03/16 09:40:17;;;;;;;3.67;2.07;;;7.70;99.90;;;;;;5014464;28;20450;-54
2021/03/16 09:42:48;;;;;;;6.60;2.70;;;7.50;99.90;;;;;;5005391;28;20455;-55
2021/03/16 09:45:19;;;;;;;4.50;2.23;;;7.30;99.90;;;;;;4992870;28;20435;-51
2021/03/16 09:47:48;;;;;;;9.43;3.37;;;7.40;99.90;;;;;;5000842;28;20462;-52
2021/03/16 09:50:19;;;;;;;4.00;2.03;;;7.80;99.90;;;;;;5011761;28;20489;-58
2021/03/16 09:53:09;;;;;;;6.50;2.53;;;9.10;99.90;;;;;;5017320;28;20426;-55
2021/03/16 09:55:37;;;;;;;4.63;3.00;;;10.00;99.90;;;;;;5017433;28;20446;-54
2021/03/16 09:58:05;;;;;;;10.17;2.50;;;10.20;99.90;;;;;;4997874;28;20634;-55
2021/03/16 10:00:34;;;;;;;3.50;1.80;;;10.00;99.90;;;;;;5000669;28;20455;-57
2021/03/16 10:03:08;;;;;;;2.47;1.67;;;9.40;99.90;;;;;;5010163;28;20452;-54
2021/03/16 10:05:36;;;;;;;3.23;1.80;;;9.20;99.90;;;;;;5008425;28;20506;-54
2021/03/16 10:08:06;;;;;;;4.07;2.03;;;9.70;99.90;;;;;;5013252;28;20448;-54
2021/03/16 10:10:37;;;;;;;2.60;1.70;;;10.00;99.90;;;;;;4997388;28;20470;-55
2021/03/16 10:13:07;;;;;;;3.00;1.93;;;10.00;99.90;;;;;;5011455;28;20434;-50
2021/03/16 10:15:38;;;;;;;2.23;1.60;;;9.70;99.90;;;;;;5011657;28;20502;-52
2021/03/16 10:18:08;;;;;;;2.50;1.50;;;9.30;99.90;;;;;;4998735;28;20439;-55
2021/03/16 10:20:38;;;;;;;2.87;1.30;;;8.90;99.90;;;;;;5002885;28;20506;-53
2021/03/16 10:25:32;;;;;;;4.80;2.10;;;8.10;99.90;;;;;;5587089;23;20462;-53
2021/03/16 10:28:02;;;;;;;2.67;2.03;;;8.20;99.90;;;;;;5008584;28;20203;-51
2021/03/16 10:30:39;;;;;;;4.87;1.63;;;8.20;99.90;;;;;;5010226;28;20463;-50
2021/03/16 10:33:08;;;;;;;2.43;1.60;;;8.10;99.90;;;;;;5009600;28;20465;-56
2021/03/16 10:35:41;;;;;;;3.27;1.67;;;8.00;99.90;;;;;;5008028;28;20458;-51
2021/03/16 10:38:12;;;;;;;2.30;1.70;;;8.00;99.90;;;;;;5013702;28;20490;-54
2021/03/16 10:40:40;;;;;;;2.53;1.43;;;8.10;99.90;;;;;;4998829;28;20423;-53
2021/03/16 10:43:09;;;;;;;5.10;2.17;;;8.00;99.90;;;;;;4998283;28;20438;-53
2021/03/16 10:45:38;;;;;;;3.80;3.20;;;8.00;99.90;;;;;;5001686;28;20455;-57
2021/03/16 10:48:07;;;;;;;2.70;1.50;;;8.00;99.90;;;;;;5006296;28;20844;-55
2021/03/16 10:50:35;;;;;;;2.40;1.70;;;7.80;99.90;;;;;;5011859;28;20550;-52
2021/03/16 10:53:03;;;;;;;4.40;1.80;;;7.80;99.90;;;;;;5009619;28;20447;-55
2021/03/16 10:55:32;;;;;;;1.97;1.50;;;7.90;99.90;;;;;;5008319;28;20492;-54
2021/03/16 10:58:00;;;;;;;2.50;1.60;;;7.90;99.90;;;;;;4977580;28;20462;-54
2021/03/16 11:00:27;;;;;;;5.13;2.17;;;7.80;99.90;;;;;;4978459;29;20471;-55
2021/03/16 11:02:55;;;;;;;3.67;2.07;;;7.80;99.90;;;;;;4979027;28;20472;-53
2021/03/16 11:05:22;;;;;;;3.10;1.63;;;7.80;99.90;;;;;;4997494;28;20447;-53
2021/03/16 11:07:49;;;;;;;2.53;1.43;;;7.80;99.90;;;;;;4997347;28;20446;-52
2021/03/16 11:10:16;;;;;;;2.30;2.03;;;7.90;99.90;;;;;;4997156;28;20462;-56
2021/03/16 11:12:45;;;;;;;1.80;1.27;;;7.90;99.90;;;;;;4996958;28;20439;-49
2021/03/16 11:15:13;;;;;;;2.37;1.83;;;7.90;99.90;;;;;;4998467;28;20526;-53
2021/03/16 11:17:40;;;;;;;4.60;1.97;;;7.90;99.90;;;;;;4998946;28;20458;-56
2021/03/16 11:20:09;;;;;;;3.23;2.00;;;7.80;99.90;;;;;;4998146;28;20451;-51
2021/03/16 11:22:37;;;;;;;6.43;1.60;;;7.90;99.90;;;;;;4997436;28;20431;-47
2021/03/16 11:25:05;;;;;;;2.57;1.97;;;7.80;99.90;;;;;;4997642;28;20457;-55
2021/03/16 11:27:31;;;;;;;3.00;1.97;;;7.80;99.90;;;;;;5009095;28;20476;-51
2021/03/16 11:29:59;;;;;;;1.60;1.47;;;7.90;99.90;;;;;;5017203;28;20941;-52
2021/03/16 11:32:26;;;;;;;2.10;1.60;;;7.90;99.90;;;;;;5014932;28;20584;-54
2021/03/16 11:34:53;;;;;;;2.20;1.40;;;8.10;99.90;;;;;;4996985;28;20831;-52
2021/03/16 11:37:22;;;;;;;2.27;1.70;;;8.20;99.90;;;;;;5006775;28;20449;-56
2021/03/16 11:39:49;;;;;;;2.67;1.70;;;8.40;99.90;;;;;;5017258;28;20505;-55
2021/03/16 11:42:16;;;;;;;1.70;1.60;;;8.40;99.90;;;;;;5009687;28;20462;-50
2021/03/16 11:44:43;;;;;;;1.37;1.20;;;8.30;99.90;;;;;;4998624;28;20435;-55
2021/03/16 11:47:10;;;;;;;3.20;1.40;;;8.20;99.90;;;;;;4997697;28;20457;-56
2021/03/16 11:49:38;;;;;;;2.20;1.60;;;8.10;99.90;;;;;;4997675;28;20442;-55
2021/03/16 11:52:07;;;;;;;2.80;1.67;;;8.20;99.90;;;;;;4997782;28;20467;-56
2021/03/16 11:54:36;;;;;;;2.43;1.80;;;8.30;99.90;;;;;;4995123;28;20454;-53
2021/03/16 11:57:04;;;;;;;2.60;1.93;;;8.40;99.90;;;;;;4995334;28;20443;-50
2021/03/16 11:59:31;;;;;;;2.40;1.67;;;8.50;99.90;;;;;;4984127;28;20775;-56
2021/03/16 12:01:58;;;;;;;2.90;2.10;;;8.50;99.90;;;;;;4990117;28;20447;-55
2021/03/16 12:04:25;;;;;;;4.23;2.37;;;8.60;99.90;;;;;;4965334;29;20812;-49
2021/03/16 12:06:53;;;;;;;4.20;2.13;;;8.40;99.90;;;;;;4971245;29;20516;-52
2021/03/16 12:09:46;;;;;;;4.53;2.53;;;8.20;99.90;;;;;;4972137;28;20443;-54
2021/03/16 12:12:15;;;;;;;3.90;3.13;;;8.10;99.90;;;;;;4986857;28;20475;-55
2021/03/16 12:14:42;;;;;;;3.73;2.83;;;8.10;99.90;;;;;;4978288;28;20447;-55
2021/03/16 12:17:10;;;;;;;3.27;2.60;;;8.00;99.90;;;;;;4989490;28;20762;-55
2021/03/16 12:19:38;;;;;;;5.70;2.57;;;8.00;99.90;;;;;;4996825;28;20442;-56
2021/03/16 12:22:05;;;;;;;11.37;4.30;;;8.00;99.90;;;;;;4997517;28;20443;-56
2021/03/16 12:24:32;;;;;;;5.20;3.40;;;8.00;99.90;;;;;;4997829;28;20803;-56
2021/03/16 12:27:07;;;;;;;3.77;2.90;;;8.00;99.90;;;;;;4987287;28;20495;-57
2021/03/16 12:30:15;;;;;;;4.87;2.87;;;8.10;99.90;;;;;;4987170;28;20818;-57
2021/03/16 12:33:28;;;;;;;8.17;3.00;;;8.20;99.90;;;;;;4989947;28;20466;-56
2021/03/16 12:42:41;;;;;;;7.07;2.97;;;8.30;99.90;;;;;;4990025;28;20398;-57
2021/03/16 12:45:08;;;;;;;5.03;2.93;;;8.30;99.90;;;;;;5019546;28;20449;-57
2021/03/16 12:47:35;;;;;;;4.23;3.10;;;8.20;99.90;;;;;;5019435;28;20434;-57
2021/03/16 12:50:04;;;;;;;5.53;3.00;;;8.20;99.90;;;;;;5002109;28;20439;-56
2021/03/16 12:52:31;;;;;;;11.90;3.00;;;8.20;99.90;;;;;;4999276;28;20442;-54
2021/03/16 12:54:59;;;;;;;5.50;2.50;;;8.20;99.90;;;;;;4998973;28;20475;-61
2021/03/16 12:57:25;;;;;;;7.80;2.60;;;8.10;99.90;;;;;;5000165;28;20474;-54
2021/03/16 12:59:53;;;;;;;5.90;2.57;;;8.00;99.90;;;;;;5007383;28;20435;-55
2021/03/16 13:02:20;;;;;;;3.77;2.30;;;8.10;99.90;;;;;;5014348;28;20439;-56
2021/03/16 13:04:47;;;;;;;4.03;2.33;;;8.10;99.90;;;;;;4999040;28;20455;-56
2021/03/16 13:07:23;;;;;;;2.83;2.23;;;8.10;99.90;;;;;;4999336;28;20470;-57
2021/03/16 13:09:51;;;;;;;5.00;3.10;;;8.20;99.90;;;;;;4999080;28;20896;-55
2021/03/16 13:12:19;;;;;;;7.37;2.80;;;8.20;99.90;;;;;;5000191;28;20513;-54
2021/03/16 13:14:46;;;;;;;7.40;2.00;;;8.40;99.90;;;;;;5018203;28;20442;-53
2021/03/16 13:17:14;;;;;;;3.40;1.83;;;8.50;99.90;;;;;;5017933;28;20445;-56
2021/03/16 13:19:44;;;;;;;2.37;1.70;;;8.60;99.90;;;;;;5018327;28;20518;-55